Time;durP1;ratioP1;P1;durP2;ratioP2;P2;SDS_P1;SDS_P2;PMS_P1;PMS_P2;Temp;Humidity;BMP_temperature;BMP_pressure;BME280_temperature;BME280_humidity;BME280_pressure;Samples;Min_cycle;Max_cycle;Signal;HPM_P1;HPM_P2
2021/10/07 00:00:12;;;;;;;21.27;5.20;;;16.10;99.90;;;16.39;89.49;102273.84;4845021;29;20118;-76
2021/10/07 00:02:41;;;;;;;23.13;6.13;;;16.10;99.90;;;16.51;89.38;102272.94;4845132;29;20041;-76
2021/10/07 00:05:12;;;;;;;19.38;6.57;;;16.30;99.90;;;16.29;89.11;102237.41;4844595;29;20053;-76
2021/10/07 00:07:41;;;;;;;22.70;6.63;;;16.40;99.90;;;16.44;89.66;102273.81;4843675;29;20053;-76
2021/10/07 00:10:11;;;;;;;17.15;6.38;;;16.30;99.90;;;16.52;89.87;102278.25;4844594;29;20100;-75
2021/10/07 00:12:40;;;;;;;28.05;6.55;;;16.30;99.90;;;16.53;89.77;102277.34;4844541;29;20053;-76
2021/10/07 00:15:10;;;;;;;21.53;5.60;;;16.30;99.90;;;16.42;90.35;102271.16;4844915;29;20106;-76
2021/10/07 00:17:39;;;;;;;29.00;6.20;;;16.20;99.90;;;16.56;89.92;102277.34;4844977;29;20042;-75
2021/10/07 00:20:13;;;;;;;25.52;6.13;;;16.30;99.90;;;16.63;89.69;102279.06;4843409;29;20069;-75
2021/10/07 00:22:41;;;;;;;20.35;6.18;;;16.40;99.90;;;16.62;89.53;102271.06;4843478;29;20078;-75
2021/10/07 00:25:13;;;;;;;18.45;5.88;;;16.50;99.90;;;16.69;89.47;102288.81;4844403;29;20050;-75
2021/10/07 00:27:43;;;;;;;24.38;6.53;;;16.40;99.90;;;16.77;89.13;102289.66;4843472;29;20082;-76
2021/10/07 00:30:16;;;;;;;19.52;5.85;;;16.50;99.90;;;16.77;88.87;102287.88;4843340;29;20412;-76
2021/10/07 00:32:52;;;;;;;23.40;6.85;;;16.60;99.90;;;16.66;88.65;102295.09;4843154;29;20038;-75
2021/10/07 00:41:08;;;;;;;19.02;5.82;;;16.30;99.90;;;16.26;90.49;102290.81;4805583;29;20127;-76
2021/10/07 00:43:38;;;;;;;18.67;6.10;;;16.20;99.90;;;16.36;91.09;102294.31;4828084;29;20122;-76
2021/10/07 00:46:06;;;;;;;21.92;5.53;;;16.20;99.90;;;16.37;90.73;102298.78;4844093;29;20062;-75
2021/10/07 00:48:34;;;;;;;15.10;6.32;;;16.20;99.90;;;16.43;90.46;102293.41;4843974;29;20045;-75
2021/10/07 00:51:03;;;;;;;20.98;5.72;;;16.20;99.90;;;16.47;90.18;102296.06;4844133;29;20050;-75
2021/10/07 00:53:32;;;;;;;16.65;5.53;;;16.30;99.90;;;16.29;90.30;102296.16;4843887;29;20058;-76
2021/10/07 00:56:01;;;;;;;19.42;5.28;;;16.20;99.90;;;16.26;90.85;102298.81;4842816;29;20091;-76
2021/10/07 00:58:31;;;;;;;15.60;6.13;;;16.10;99.90;;;16.14;91.02;102283.75;4844022;29;20074;-75
2021/10/07 01:01:01;;;;;;;12.63;5.07;;;16.10;99.90;;;16.15;91.30;102287.31;4844145;29;20106;-75
2021/10/07 01:03:33;;;;;;;14.93;4.72;;;16.00;99.90;;;16.02;91.69;102296.28;4843705;29;20046;-75
2021/10/07 01:06:02;;;;;;;18.58;5.80;;;15.80;99.90;;;16.13;91.85;102308.69;4842604;29;20057;-76
2021/10/07 01:08:30;;;;;;;16.85;6.40;;;15.80;99.90;;;16.15;92.15;102311.34;4843861;29;20073;-76
2021/10/07 01:10:58;;;;;;;14.57;5.35;;;15.80;99.90;;;16.18;91.92;102311.34;4843518;29;20046;-76
2021/10/07 01:13:27;;;;;;;16.85;5.43;;;15.80;99.90;;;16.15;91.78;102290.00;4843830;29;20045;-75
2021/10/07 01:16:03;;;;;;;17.27;5.40;;;16.00;99.90;;;16.28;91.25;102291.69;4843992;29;20050;-75
2021/10/07 01:18:31;;;;;;;17.55;5.75;;;16.10;99.90;;;16.49;90.81;102323.66;4843921;29;20122;-75
2021/10/07 01:21:04;;;;;;;17.48;5.65;;;16.10;99.90;;;16.53;90.50;102328.09;4843557;29;20080;-75
2021/10/07 01:23:33;;;;;;;16.55;5.47;;;16.20;99.90;;;16.53;90.34;102322.75;4843580;29;20065;-76
2021/10/07 01:26:01;;;;;;;12.07;4.88;;;16.20;99.90;;;16.48;89.97;102311.22;4843178;29;20493;-76
2021/10/07 01:28:29;;;;;;;13.52;4.70;;;16.30;99.90;;;16.66;89.96;102323.59;4843802;29;20049;-76
2021/10/07 01:30:58;;;;;;;13.77;4.70;;;16.30;99.90;;;16.68;89.72;102332.47;4843155;29;20074;-75
2021/10/07 01:33:26;;;;;;;14.90;4.82;;;16.30;99.90;;;16.70;89.66;102331.59;4843664;29;20102;-76
2021/10/07 01:35:55;;;;;;;10.93;4.90;;;16.30;99.90;;;16.72;89.46;102329.78;4843075;29;20116;-75
2021/10/07 01:38:24;;;;;;;14.52;4.68;;;16.40;99.90;;;16.75;88.84;102305.72;4843568;29;20053;-75
2021/10/07 01:40:53;;;;;;;15.75;5.40;;;16.50;99.90;;;16.92;88.64;102340.31;4842997;29;20504;-76
2021/10/07 01:43:21;;;;;;;17.08;5.20;;;16.60;99.90;;;16.89;88.30;102341.25;4842535;29;20572;-76
2021/10/07 01:45:51;;;;;;;15.68;5.63;;;16.50;99.90;;;16.87;88.50;102343.06;4857076;29;20062;-76
2021/10/07 01:48:20;;;;;;;14.52;5.25;;;16.60;99.90;;;16.87;88.55;102343.06;4843186;29;20046;-76
2021/10/07 01:50:48;;;;;;;15.25;4.65;;;16.50;99.90;;;16.92;88.48;102349.25;4842842;29;20477;-75
2021/10/07 01:53:17;;;;;;;14.95;5.25;;;16.60;99.90;;;16.96;88.17;102353.69;4843081;29;20114;-76
2021/10/07 01:55:46;;;;;;;13.95;4.80;;;16.60;99.90;;;16.90;88.06;102343.03;4841811;29;20066;-75
2021/10/07 01:58:15;;;;;;;24.05;4.95;;;16.60;99.90;;;16.72;87.83;102323.56;4842803;29;20050;-76
2021/10/07 02:00:47;;;;;;;16.20;5.30;;;16.50;99.90;;;16.85;88.11;102342.19;4842928;29;20061;-75
2021/10/07 02:03:18;;;;;;;16.45;5.22;;;16.60;99.90;;;16.98;87.77;102365.25;4843259;29;20456;-76
2021/10/07 02:05:46;;;;;;;26.95;5.72;;;16.60;99.90;;;16.90;87.43;102361.72;4842856;29;20042;-75
2021/10/07 02:08:14;;;;;;;20.40;6.32;;;16.60;99.90;;;16.88;87.03;102363.53;4842712;29;20110;-76
2021/10/07 02:10:43;;;;;;;19.88;5.97;;;16.50;99.90;;;16.77;87.32;102362.72;4842803;29;20041;-76
2021/10/07 02:13:14;;;;;;;21.73;6.53;;;16.40;99.90;;;16.71;87.35;102365.41;4842521;29;20050;-75
2021/10/07 02:15:42;;;;;;;17.48;5.68;;;16.40;99.90;;;16.77;87.18;102364.50;4842626;29;20120;-76
2021/10/07 02:18:11;;;;;;;24.98;6.20;;;16.40;99.90;;;16.68;87.19;102370.78;4842770;29;20098;-76
2021/10/07 02:20:39;;;;;;;21.33;5.72;;;16.30;99.90;;;16.56;87.69;102375.28;4843169;29;20050;-76
2021/10/07 02:23:08;;;;;;;21.73;6.32;;;16.20;99.90;;;16.59;87.61;102375.31;4841576;29;20062;-76
2021/10/07 02:25:37;;;;;;;24.45;6.15;;;16.20;99.90;;;16.53;87.68;102365.50;4842606;29;20049;-75
2021/10/07 02:28:05;;;;;;;22.92;6.05;;;16.20;99.90;;;16.36;87.54;102334.38;4842357;29;20513;-76
2021/10/07 02:30:35;;;;;;;22.67;5.68;;;16.20;99.90;;;16.51;87.59;102371.78;4842919;29;20038;-76
2021/10/07 02:33:04;;;;;;;20.80;5.25;;;16.10;99.90;;;16.54;87.77;102371.75;4842684;29;20156;-76
2021/10/07 02:35:32;;;;;;;18.05;5.65;;;16.20;99.90;;;16.38;87.12;102349.53;4842318;29;20046;-75
2021/10/07 02:38:01;;;;;;;20.08;6.35;;;16.20;99.90;;;16.42;87.55;102372.66;4841359;29;20485;-76
2021/10/07 02:40:31;;;;;;;17.42;5.22;;;16.10;99.90;;;16.36;87.87;102370.00;4842570;29;20046;-76
2021/10/07 02:43:00;;;;;;;24.95;6.53;;;16.00;99.90;;;16.24;88.16;102360.25;4841338;29;20129;-76
2021/10/07 02:45:29;;;;;;;20.13;6.07;;;15.90;99.90;;;16.27;88.02;102370.94;4841857;29;20053;-75
2021/10/07 02:47:59;;;;;;;19.98;6.35;;;15.90;99.90;;;16.24;88.13;102378.94;4842720;29;20073;-76
2021/10/07 02:50:29;;;;;;;17.00;5.53;;;15.90;99.90;;;16.29;88.06;102376.28;4842550;29;20069;-75
2021/10/07 02:52:57;;;;;;;20.48;5.60;;;15.90;99.90;;;16.39;87.93;102379.78;4842213;29;20551;-75
2021/10/07 02:55:25;;;;;;;15.32;5.63;;;16.00;99.90;;;16.52;87.24;102369.09;4844266;29;20061;-75
2021/10/07 02:57:54;;;;;;;18.50;5.50;;;16.20;99.90;;;16.60;86.57;102361.94;4846090;29;20046;-75
2021/10/07 03:00:23;;;;;;;18.25;5.82;;;16.40;99.90;;;16.83;85.94;102381.38;4845805;29;20128;-76
2021/10/07 03:02:51;;;;;;;17.45;5.45;;;16.50;99.90;;;16.89;85.61;102386.69;4845770;29;20049;-76
2021/10/07 03:05:21;;;;;;;12.88;4.80;;;16.50;99.90;;;16.93;85.24;102384.91;4846149;29;20134;-75
2021/10/07 03:07:49;;;;;;;16.97;5.40;;;16.60;99.90;;;16.95;84.77;102381.31;4844946;29;20454;-75
2021/10/07 03:10:20;;;;;;;17.63;5.18;;;16.60;99.90;;;16.92;84.60;102375.97;4845694;29;20091;-75
2021/10/07 03:12:50;;;;;;;21.30;5.65;;;16.60;99.90;;;16.96;84.50;102388.44;4845944;29;20095;-75
2021/10/07 03:15:19;;;;;;;16.55;5.47;;;16.60;99.90;;;17.03;84.32;102389.28;4845463;29;20102;-75
2021/10/07 03:17:47;;;;;;;14.30;5.28;;;16.60;99.90;;;17.13;84.10;102389.19;4844653;29;20641;-75
2021/10/07 03:20:16;;;;;;;14.98;5.55;;;16.70;99.90;;;17.19;83.80;102398.09;4845737;29;20041;-75
2021/10/07 03:22:46;;;;;;;16.00;5.20;;;16.80;99.90;;;17.25;83.03;102390.91;4845408;29;20130;-76
2021/10/07 03:25:15;;;;;;;15.35;5.22;;;17.00;99.90;;;17.07;83.04;102383.03;4845352;29;20053;-76
2021/10/07 03:27:44;;;;;;;13.50;4.55;;;16.90;99.90;;;17.12;83.25;102395.47;4845576;29;20081;-76
2021/10/07 03:30:12;;;;;;;15.38;5.22;;;16.80;99.90;;;17.17;83.29;102399.91;4845361;29;20118;-76
2021/10/07 03:32:41;;;;;;;13.05;4.65;;;16.80;99.90;;;17.14;83.50;102412.38;4845236;29;20049;-76
2021/10/07 03:35:10;;;;;;;9.75;4.57;;;16.80;99.90;;;17.09;83.58;102413.31;4845723;29;20050;-75
2021/10/07 03:37:38;;;;;;;15.30;5.35;;;16.70;99.90;;;17.06;84.07;102413.31;4845123;29;20050;-76
2021/10/07 03:40:12;;;;;;;15.52;5.15;;;16.70;99.90;;;16.93;83.96;102399.16;4844133;29;20082;-75
2021/10/07 03:42:41;;;;;;;11.25;4.75;;;16.70;99.90;;;16.81;83.89;102383.19;4845262;29;20054;-76
2021/10/07 03:45:10;;;;;;;15.02;5.38;;;16.60;99.90;;;16.99;84.22;102416.94;4845068;29;20054;-76
2021/10/07 03:47:40;;;;;;;13.07;4.88;;;16.60;99.90;;;17.08;83.82;102424.91;4845214;29;20053;-76
2021/10/07 03:50:10;;;;;;;14.55;5.03;;;16.70;99.90;;;17.06;83.93;102427.59;4845233;29;20054;-75
2021/10/07 03:52:38;;;;;;;13.18;4.85;;;16.60;99.90;;;17.07;83.87;102434.69;4844913;29;20069;-76
2021/10/07 03:55:09;;;;;;;14.82;5.18;;;16.70;99.90;;;17.06;83.72;102430.25;4845135;29;20046;-76
2021/10/07 03:57:37;;;;;;;13.30;4.82;;;16.70;99.90;;;16.95;83.74;102424.09;4845133;29;20042;-75
2021/10/07 04:00:09;;;;;;;12.25;5.05;;;16.60;99.90;;;17.03;83.58;102432.94;4843786;29;20058;-75
2021/10/07 04:02:41;;;;;;;14.45;4.93;;;16.60;99.90;;;17.03;83.39;102432.94;4844729;29;20140;-75
2021/10/07 04:05:09;;;;;;;17.92;5.32;;;16.70;99.90;;;16.94;83.41;102433.00;4844422;29;20042;-76
2021/10/07 04:07:38;;;;;;;16.63;5.13;;;16.70;99.90;;;17.05;83.55;102440.97;4844426;29;20076;-75
2021/10/07 04:10:10;;;;;;;15.05;5.10;;;16.70;99.90;;;16.86;83.46;102418.78;4843353;29;20053;-76
2021/10/07 04:12:39;;;;;;;16.40;5.00;;;16.70;99.90;;;16.99;83.47;102444.53;4845131;29;20057;-76
2021/10/07 04:15:08;;;;;;;13.55;5.57;;;16.70;99.90;;;16.99;83.62;102452.56;4844419;29;20500;-71
2021/10/07 04:17:37;;;;;;;19.00;5.20;;;16.60;99.90;;;16.99;83.53;102457.03;4844527;29;20046;-73
2021/10/07 04:20:07;;;;;;;17.63;5.25;;;16.60;99.90;;;17.00;82.64;102443.66;4844444;29;20038;-75
2021/10/07 04:22:36;;;;;;;19.75;6.18;;;16.60;99.90;;;16.92;82.43;102447.25;4844710;29;20053;-74
2021/10/07 04:25:05;;;;;;;18.05;5.18;;;16.60;99.90;;;16.76;83.04;102443.78;4844402;29;20404;-78
2021/10/07 04:27:36;;;;;;;15.90;5.32;;;16.50;99.90;;;16.88;82.83;102457.09;4843312;29;20061;-75
2021/10/07 04:30:07;;;;;;;;;;;16.50;99.90;;;16.87;82.67;102449.97;4844700;29;20049;-72
2021/10/07 04:32:36;;;;;;;12.77;4.80;;;16.50;99.90;;;16.87;83.13;102446.41;4844300;29;20390;-72
2021/10/07 04:35:06;;;;;;;14.93;5.18;;;16.50;99.90;;;16.98;82.69;102449.91;4844482;29;20445;-72
2021/10/07 04:37:35;;;;;;;17.63;5.43;;;16.60;99.90;;;16.86;82.28;102429.47;4844478;29;20046;-72
2021/10/07 04:40:04;;;;;;;19.90;5.95;;;16.70;99.90;;;17.10;81.73;102461.44;4844093;29;20403;-72
2021/10/07 04:42:34;;;;;;;15.63;5.00;;;16.70;99.90;;;17.11;81.54;102467.69;4843998;29;20053;-72
2021/10/07 04:45:03;;;;;;;16.30;5.00;;;16.80;99.90;;;17.14;81.53;102471.22;4844125;29;20050;-72
2021/10/07 04:47:32;;;;;;;11.77;4.78;;;16.80;99.90;;;17.14;81.34;102471.22;4844339;29;20426;-72
2021/10/07 04:50:00;;;;;;;15.98;5.15;;;16.70;99.90;;;17.19;81.16;102473.00;4843868;29;20050;-72
2021/10/07 04:52:28;;;;;;;12.73;4.82;;;16.80;99.90;;;17.16;80.92;102471.22;4844204;29;20048;-72
2021/10/07 04:54:57;;;;;;;15.80;5.72;;;16.80;99.90;;;16.88;80.99;102443.72;4842841;29;20078;-72
2021/10/07 04:57:26;;;;;;;15.20;5.25;;;16.70;99.90;;;16.92;80.86;102461.53;4843687;29;20046;-72
2021/10/07 04:59:55;;;;;;;13.90;4.68;;;16.60;99.90;;;16.93;81.05;102473.13;4843738;29;20442;-71
2021/10/07 05:02:24;;;;;;;18.15;5.05;;;16.50;99.90;;;16.90;81.00;102470.44;4843920;29;20124;-71
2021/10/07 05:04:53;;;;;;;15.82;4.97;;;16.50;99.90;;;16.80;81.21;102469.59;4843907;29;20137;-71
2021/10/07 05:07:21;;;;;;;14.50;4.95;;;16.40;99.90;;;16.77;81.00;102466.06;4843864;29;20046;-71
2021/10/07 05:09:50;;;;;;;12.50;5.22;;;16.40;99.90;;;16.53;81.04;102451.00;4843550;29;20096;-71
2021/10/07 05:12:18;;;;;;;15.65;5.30;;;16.30;99.90;;;16.59;81.09;102466.16;4843585;29;20046;-71
2021/10/07 05:14:47;;;;;;;11.65;4.82;;;16.20;99.90;;;16.62;81.17;102476.81;4843547;29;20128;-71
2021/10/07 05:17:16;;;;;;;13.18;4.85;;;16.20;99.90;;;16.45;81.19;102450.13;4843008;29;20050;-71
2021/10/07 05:19:45;;;;;;;10.95;4.88;;;16.20;99.90;;;16.57;81.19;102482.16;4843111;29;20084;-71
2021/10/07 05:22:13;;;;;;;11.50;4.68;;;16.20;99.90;;;16.54;81.45;102473.25;4842138;29;20137;-71
2021/10/07 05:24:42;;;;;;;8.43;4.45;;;16.20;99.90;;;16.64;81.39;102489.28;4843199;29;20042;-71
2021/10/07 05:27:12;;;;;;;17.17;4.32;;;16.30;99.90;;;16.66;81.56;102489.25;4843131;29;20109;-71
2021/10/07 05:29:40;;;;;;;19.38;5.20;;;16.30;99.90;;;16.64;81.21;102491.94;4843257;29;20098;-71
2021/10/07 05:32:09;;;;;;;11.80;5.85;;;16.30;99.90;;;16.58;81.20;102486.63;4843216;29;20133;-71
2021/10/07 05:34:39;;;;;;;12.95;4.97;;;16.30;99.90;;;16.61;81.38;102497.28;4843082;29;20073;-71
2021/10/07 05:37:07;;;;;;;12.13;4.87;;;16.20;99.90;;;16.54;81.43;102494.63;4843343;29;20500;-71
2021/10/07 05:39:35;;;;;;;11.82;4.78;;;16.20;99.90;;;16.49;81.54;102486.63;4843075;29;20406;-72
2021/10/07 05:42:05;;;;;;;11.73;4.80;;;16.10;99.90;;;16.40;81.31;102491.06;4842950;29;20046;-72
2021/10/07 05:44:34;;;;;;;12.95;4.75;;;16.00;99.90;;;16.38;80.93;102496.44;4842720;29;20390;-71
2021/10/07 05:47:03;;;;;;;14.77;5.32;;;16.00;99.90;;;16.37;80.66;102499.09;4841674;29;20062;-71
2021/10/07 05:49:31;;;;;;;15.80;5.38;;;15.90;99.90;;;16.20;81.19;102477.78;4842867;29;20124;-71
2021/10/07 05:52:01;;;;;;;9.98;5.05;;;15.90;99.90;;;16.29;81.40;102504.47;4841845;29;20516;-71
2021/10/07 05:54:30;;;;;;;11.38;5.07;;;15.90;99.90;;;16.24;81.40;102499.13;4842914;29;20056;-71
2021/10/07 05:56:58;;;;;;;17.38;5.32;;;15.90;99.90;;;16.16;81.76;102492.03;4842612;29;20075;-71
2021/10/07 05:59:26;;;;;;;11.77;4.90;;;15.80;99.90;;;16.08;81.72;102486.72;4842820;29;20117;-71
2021/10/07 06:01:55;;;;;;;14.50;5.20;;;15.90;99.90;;;16.23;81.83;102497.34;4842558;29;20041;-71
2021/10/07 06:04:24;;;;;;;17.90;5.63;;;15.90;99.90;;;16.15;81.66;102503.59;4842505;29;20408;-71
2021/10/07 06:06:52;;;;;;;13.45;5.25;;;15.90;99.90;;;16.15;82.14;102512.50;4842562;29;20050;-71
2021/10/07 06:09:22;;;;;;;10.45;5.03;;;15.80;99.90;;;16.13;82.07;102508.94;4842384;29;20046;-71
2021/10/07 06:11:50;;;;;;;14.13;5.43;;;15.80;99.90;;;16.19;81.96;102519.63;4842658;29;20042;-71
2021/10/07 06:14:19;;;;;;;11.73;4.60;;;15.80;99.90;;;16.27;81.66;102530.28;4842415;29;20323;-71
2021/10/07 06:16:50;;;;;;;13.50;5.25;;;15.90;99.90;;;16.26;81.83;102521.38;4842974;29;20046;-71
2021/10/07 06:19:22;;;;;;;14.25;5.20;;;15.90;99.90;;;16.28;82.55;102524.94;4842565;29;20457;-71
2021/10/07 06:21:50;;;;;;;12.68;5.20;;;16.00;99.90;;;16.32;82.63;102530.28;4842530;29;20404;-71
2021/10/07 06:24:20;;;;;;;8.52;4.60;;;16.00;99.90;;;16.43;82.40;102533.81;4842661;29;20072;-71
2021/10/07 06:26:49;;;;;;;10.90;4.35;;;16.00;99.90;;;16.44;82.03;102517.78;4842503;29;20065;-71
2021/10/07 06:29:17;;;;;;;14.23;5.78;;;16.10;99.90;;;16.69;82.01;102530.22;4841272;29;20442;-71
2021/10/07 06:31:46;;;;;;;14.98;5.47;;;16.30;99.90;;;16.63;81.10;102524.00;4842499;29;20045;-71
2021/10/07 06:34:14;;;;;;;12.98;5.15;;;16.40;99.90;;;16.95;80.90;102543.50;4842483;29;20054;-71
2021/10/07 06:36:43;;;;;;;9.30;4.70;;;16.50;99.90;;;17.21;80.34;102551.44;4842476;29;20493;-71
2021/10/07 06:39:12;;;;;;;9.52;5.03;;;16.80;99.90;;;17.42;79.33;102554.00;4842447;29;20046;-71
2021/10/07 06:41:45;;;;;;;18.50;4.90;;;17.00;99.90;;;17.60;78.26;102560.16;4842559;29;20111;-71
2021/10/07 06:44:14;;;;;;;9.40;4.68;;;17.20;99.90;;;17.80;77.15;102555.56;4842195;29;20045;-72
2021/10/07 06:46:42;;;;;;;11.60;5.00;;;17.40;99.90;;;18.02;76.17;102559.84;4842602;29;20069;-71
2021/10/07 06:49:11;;;;;;;12.85;5.35;;;17.70;99.90;;;18.14;75.08;102561.53;4842208;29;20084;-71
2021/10/07 06:51:39;;;;;;;11.65;5.28;;;17.80;99.90;;;18.24;74.30;102563.22;4842166;29;20092;-72
2021/10/07 06:54:08;;;;;;;10.02;4.93;;;17.90;99.90;;;18.22;73.47;102550.75;4842374;29;20501;-72
2021/10/07 06:56:36;;;;;;;11.95;4.53;;;18.00;99.90;;;18.52;73.03;102580.88;4842094;29;20126;-72
2021/10/07 06:59:06;;;;;;;13.77;5.43;;;18.10;99.90;;;18.59;72.10;102574.53;4842368;29;20054;-72
2021/10/07 07:01:35;;;;;;;11.32;4.45;;;18.30;99.90;;;18.86;71.83;102579.63;4841993;29;20042;-72
2021/10/07 07:04:03;;;;;;;12.90;5.43;;;18.50;99.90;;;19.00;71.70;102558.00;4842249;29;20052;-71
2021/10/07 07:06:35;;;;;;;19.42;5.68;;;18.90;99.90;;;19.37;70.69;102591.56;4840752;29;20054;-71
2021/10/07 07:09:03;;;;;;;13.20;5.13;;;19.20;99.90;;;19.55;69.40;102599.34;4840984;29;20065;-70
2021/10/07 07:11:31;;;;;;;14.55;5.30;;;19.30;99.90;;;19.69;69.01;102597.34;4842014;29;20049;-71
2021/10/07 07:14:02;;;;;;;14.43;5.35;;;19.50;99.90;;;20.05;68.06;102601.31;4842073;29;20078;-71
2021/10/07 07:16:32;;;;;;;12.70;5.45;;;19.80;99.90;;;20.08;66.40;102603.03;4842334;29;20038;-71
2021/10/07 07:19:01;;;;;;;12.75;5.20;;;19.90;99.90;;;20.27;66.49;102607.22;4842169;29;20049;-71
2021/10/07 07:21:31;;;;;;;13.00;5.05;;;20.00;99.90;;;20.66;65.00;102602.06;4841747;29;20070;-76
2021/10/07 07:24:01;;;;;;;17.58;4.88;;;20.40;99.90;;;20.72;64.43;102554.44;4841898;29;20050;-78
2021/10/07 07:26:31;;;;;;;10.40;5.03;;;20.80;99.90;;;21.27;63.68;102600.91;4841858;29;20046;-77
2021/10/07 07:29:00;;;;;;;11.27;4.80;;;21.10;99.90;;;21.68;63.55;102624.25;4841593;29;20053;-77
2021/10/07 07:31:30;;;;;;;12.77;4.63;;;21.40;99.90;;;21.96;62.90;102620.91;4841922;29;20038;-76
2021/10/07 07:34:01;;;;;;;12.70;5.13;;;21.70;99.90;;;22.19;61.94;102629.34;4842281;29;20058;-76
2021/10/07 07:36:30;;;;;;;;;;;22.00;99.90;;;22.41;61.82;102630.56;4842204;29;20050;-72
2021/10/07 07:38:59;;;;;;;11.70;5.03;;;22.20;99.90;;;22.52;61.02;102642.91;4841940;29;19924;-72
2021/10/07 07:41:37;;;;;;;12.38;5.20;;;22.20;99.90;;;22.45;61.33;102599.03;4843815;29;20061;-73
2021/10/07 07:44:07;;;;;;;9.83;4.70;;;22.30;99.90;;;22.97;61.15;102641.72;4845101;29;20050;-73
2021/10/07 07:46:37;;;;;;;13.88;5.22;;;22.60;99.90;;;23.06;59.93;102625.25;4845136;29;20058;-74
2021/10/07 07:49:05;;;;;;;11.15;4.70;;;22.80;99.90;;;23.42;59.42;102658.47;4844888;29;20042;-74
2021/10/07 07:51:34;;;;;;;12.32;5.18;;;23.00;99.90;;;23.56;57.94;102657.13;4844882;29;20046;-73
2021/10/07 07:54:03;;;;;;;16.30;5.57;;;23.30;99.90;;;23.65;57.42;102665.00;4844858;29;20099;-74
2021/10/07 07:56:33;;;;;;;11.07;5.07;;;23.30;99.90;;;23.87;58.24;102663.38;4844816;29;20106;-73
2021/10/07 07:59:01;;;;;;;14.20;5.25;;;23.50;99.90;;;24.04;57.92;102674.59;4844873;29;20485;-73
2021/10/07 08:01:31;;;;;;;11.27;4.53;;;23.70;99.90;;;23.96;56.78;102665.78;4845029;29;20091;-73
2021/10/07 08:04:01;;;;;;;9.93;4.22;;;23.60;99.90;;;24.00;57.16;102662.06;4844741;29;20069;-73
2021/10/07 08:06:32;;;;;;;12.50;4.63;;;23.70;99.90;;;23.78;56.69;102660.97;4845172;29;20102;-73
2021/10/07 08:09:00;;;;;;;;;;;23.60;99.90;;;23.92;56.27;102679.47;4845357;29;20053;-73
2021/10/07 08:11:29;;;;;;;17.00;4.50;;;23.60;99.90;;;23.81;55.67;102679.78;4844944;29;20340;-74
2021/10/07 08:13:58;;;;;;;10.75;4.63;;;23.50;99.90;;;23.88;56.18;102678.69;4844450;29;20091;-73
2021/10/07 08:16:29;;;;;;;12.50;4.32;;;23.40;99.90;;;24.25;56.45;102673.03;4844605;29;20068;-74
2021/10/07 08:18:58;;;;;;;9.32;4.32;;;23.80;99.90;;;23.99;55.64;102681.94;4844687;29;20080;-74
2021/10/07 08:21:28;;;;;;;13.50;4.60;;;23.70;99.90;;;23.73;56.04;102659.34;4843311;29;20433;-74
2021/10/07 08:23:57;;;;;;;10.02;4.43;;;23.60;99.90;;;23.98;57.14;102673.88;4843496;29;20109;-74
2021/10/07 08:26:26;;;;;;;14.30;4.85;;;23.60;99.90;;;23.92;56.71;102683.06;4843380;29;20136;-73
2021/10/07 08:28:54;;;;;;;16.60;4.95;;;23.60;99.90;;;23.66;56.61;102687.47;4844153;29;20484;-74
2021/10/07 08:31:23;;;;;;;12.65;4.53;;;23.30;99.90;;;23.80;57.20;102682.56;4844279;29;20468;-73
2021/10/07 08:33:51;;;;;;;12.02;4.38;;;23.40;99.90;;;23.94;56.95;102688.44;4844380;29;20052;-77
2021/10/07 08:36:20;;;;;;;13.07;5.00;;;23.50;99.90;;;23.80;55.61;102675.34;4844054;29;20565;-78
2021/10/07 08:38:49;;;;;;;9.50;4.22;;;23.50;99.90;;;23.44;55.63;102665.59;4844546;29;20136;-75
2021/10/07 08:41:19;;;;;;;12.77;4.32;;;23.30;99.90;;;23.36;55.69;102685.66;4844595;29;20396;-74
2021/10/07 08:43:51;;;;;;;12.40;4.22;;;23.00;99.90;;;23.65;55.77;102693.81;4844117;29;20049;-74
2021/10/07 08:46:24;;;;;;;13.25;4.18;;;23.20;99.90;;;23.53;55.06;102676.16;4843721;29;20470;-75
2021/10/07 08:48:53;;;;;;;8.85;4.03;;;23.30;99.90;;;23.75;55.74;102698.91;4843977;29;20471;-74
2021/10/07 08:51:22;;;;;;;14.23;4.28;;;23.40;99.90;;;23.64;55.63;102698.34;4844178;29;20046;-75
2021/10/07 08:53:51;;;;;;;11.00;4.15;;;23.30;99.90;;;23.77;55.50;102707.84;4843175;29;20041;-74
2021/10/07 08:56:20;;;;;;;11.82;3.90;;;23.40;99.90;;;23.50;54.22;102687.03;4842441;29;20053;-75
2021/10/07 08:58:49;;;;;;;13.45;4.75;;;23.30;99.90;;;23.37;55.03;102704.53;4844004;29;20146;-74
2021/10/07 09:01:39;;;;;;;15.77;4.35;;;23.10;99.90;;;23.40;55.05;102701.75;4843692;29;20050;-74
2021/10/07 09:04:23;;;;;;;;;;;23.00;99.90;;;23.37;56.12;102706.34;4844288;29;20513;-75
2021/10/07 09:06:54;;;;;;;10.10;3.80;;;23.00;99.90;;;23.42;55.96;102699.91;4843560;29;19951;-75
2021/10/07 09:09:30;;;;;;;12.40;3.78;;;23.10;99.90;;;23.21;54.23;102660.81;4842402;29;20082;-74
2021/10/07 09:12:01;;;;;;;10.82;4.10;;;23.10;99.90;;;23.37;54.07;102698.22;4843325;29;20046;-75
2021/10/07 09:14:32;;;;;;;9.38;3.38;;;23.00;99.90;;;23.23;53.06;102704.88;4843770;29;20102;-75
2021/10/07 09:17:03;;;;;;;8.02;3.55;;;22.90;99.90;;;23.17;53.18;102710.44;4843929;29;20042;-74
2021/10/07 09:19:33;;;;;;;;;;;22.90;99.90;;;23.23;54.13;102698.59;4844109;29;20117;-78
2021/10/07 09:22:14;;;;;;;7.72;3.42;;;22.90;99.90;;;23.72;53.35;102703.50;4843419;29;19924;-73
2021/10/07 09:24:46;;;;;;;8.25;3.58;;;23.30;99.90;;;23.54;54.42;102618.47;4842385;29;20058;-73
2021/10/07 09:27:18;;;;;;;12.40;3.90;;;23.60;99.90;;;24.39;54.39;102699.66;4842387;29;20050;-72
2021/10/07 09:29:51;;;;;;;8.00;3.40;;;24.00;99.90;;;24.52;52.44;102703.72;4843169;29;20102;-72
2021/10/07 09:32:29;;;;;;;8.50;3.40;;;24.20;99.90;;;24.86;53.43;102698.97;4843273;29;20041;-73
2021/10/07 09:35:00;;;;;;;9.52;3.33;;;24.50;99.90;;;25.24;52.87;102697.63;4843103;29;20053;-72
2021/10/07 09:37:34;;;;;;;8.85;3.42;;;24.90;99.90;;;25.51;50.94;102708.34;4843358;29;20054;-73
2021/10/07 09:40:10;;;;;;;10.93;3.53;;;25.20;99.90;;;25.20;48.09;102706.81;4843224;29;20046;-73
2021/10/07 09:42:41;;;;;;;8.10;3.17;;;25.00;99.90;;;25.02;50.18;102701.09;4842991;29;20069;-74
2021/10/07 09:45:15;;;;;;;6.90;3.15;;;24.80;99.90;;;24.91;51.16;102702.41;4841442;29;20049;-73
2021/10/07 09:47:46;;;;;;;8.13;3.28;;;24.60;99.90;;;24.51;51.41;102696.53;4842946;29;20050;-73
2021/10/07 09:50:25;;;;;;;8.52;3.15;;;24.30;99.90;;;24.39;52.56;102694.25;4843038;29;20053;-72
2021/10/07 09:53:06;;;;;;;7.53;3.17;;;24.10;99.90;;;24.23;53.39;102703.78;4842997;29;20065;-72
2021/10/07 09:55:39;;;;;;;8.55;3.70;;;23.90;99.90;;;23.90;53.00;102701.16;4842654;29;20094;-72
2021/10/07 09:58:13;;;;;;;6.70;3.40;;;23.50;99.90;;;22.37;53.91;102415.81;4843223;29;20050;-72
2021/10/07 10:00:49;;;;;;;11.95;3.67;;;23.60;99.90;;;23.98;53.99;102701.78;4842772;29;20393;-75
2021/10/07 10:03:19;;;;;;;7.35;3.00;;;23.60;99.90;;;23.80;53.84;102687.97;4842443;29;20042;-74
2021/10/07 10:05:50;;;;;;;9.40;3.40;;;23.50;99.90;;;23.73;53.91;102711.56;4842719;29;20041;-64
2021/10/07 10:08:21;;;;;;;9.98;3.70;;;23.50;99.90;;;23.62;54.76;102702.00;4842596;29;20053;-65
2021/10/07 10:10:53;;;;;;;8.15;3.58;;;23.40;99.90;;;23.31;54.50;102699.31;4841561;29;20050;-65
2021/10/07 10:13:21;;;;;;;12.48;3.20;;;23.10;99.90;;;23.02;55.08;102700.06;4842701;29;20066;-65
2021/10/07 10:15:50;;;;;;;8.82;3.40;;;22.80;99.90;;;22.68;55.02;102680.28;4842758;29;20046;-65
2021/10/07 10:18:19;;;;;;;10.23;3.38;;;22.50;99.90;;;22.63;55.85;102667.84;4842481;29;20056;-64
2021/10/07 10:20:51;;;;;;;10.15;3.55;;;22.40;99.90;;;22.34;55.67;102668.50;4842383;29;20050;-64
2021/10/07 10:23:23;;;;;;;9.65;3.38;;;22.20;99.90;;;22.24;56.23;102696.66;4842473;29;20469;-63